Time;durP1;ratioP1;P1;durP2;ratioP2;P2;SDS_P1;SDS_P2;PMS_P1;PMS_P2;Temp;Humidity;BMP_temperature;BMP_pressure;BME280_temperature;BME280_humidity;BME280_pressure;Samples;Min_cycle;Max_cycle;Signal;HPM_P1;HPM_P2
2023/03/19 00:02:36;;;;;;;9.47;7.47;;;1.00;99.90;1.80;96761.00;;;;5098874;28;20483;-69
2023/03/19 00:05:25;;;;;;;10.40;6.87;;;1.50;99.90;1.60;96757.00;;;;5093265;28;20808;-70
2023/03/19 00:08:14;;;;;;;8.73;6.73;;;1.10;99.90;1.60;96760.00;;;;5104825;28;20421;-68
2023/03/19 00:11:07;;;;;;;11.27;7.10;;;1.60;99.90;2.50;96757.00;;;;5109753;28;20962;-68
2023/03/19 00:13:56;;;;;;;14.50;8.30;;;1.30;99.90;2.40;96759.00;;;;5105014;28;20518;-68
2023/03/19 00:16:46;;;;;;;11.97;8.27;;;0.90;99.90;2.20;96752.00;;;;5109973;28;21003;-68
2023/03/19 00:19:35;;;;;;;13.87;7.23;;;1.40;99.90;2.00;96746.00;;;;5100343;28;20920;-68
2023/03/19 00:22:24;;;;;;;9.20;6.27;;;1.40;99.90;1.60;96741.00;;;;5099947;28;20459;-70
2023/03/19 00:25:13;;;;;;;11.47;8.90;;;1.50;99.90;1.70;96742.00;;;;5103396;28;20496;-71
2023/03/19 00:28:02;;;;;;;11.90;8.10;;;1.30;99.90;2.30;96736.00;;;;5103210;28;20481;-70
2023/03/19 00:30:51;;;;;;;7.77;6.90;;;1.30;99.90;2.00;96749.00;;;;5101101;28;20441;-71
2023/03/19 00:33:41;;;;;;;7.87;6.50;;;1.10;99.90;1.80;96747.00;;;;5101522;28;20414;-71
2023/03/19 00:36:30;;;;;;;12.17;7.73;;;1.30;99.90;1.70;96745.00;;;;5100342;28;20433;-70
2023/03/19 00:39:20;;;;;;;12.60;8.27;;;0.90;99.90;1.80;96746.00;;;;5098952;28;20768;-70
2023/03/19 00:42:09;;;;;;;16.07;7.43;;;1.10;99.90;2.20;96736.00;;;;5100205;27;20473;-70
2023/03/19 00:44:58;;;;;;;9.90;6.60;;;0.70;99.90;2.20;96733.00;;;;5096361;28;20935;-70
2023/03/19 00:47:47;;;;;;;14.63;7.83;;;1.30;99.90;2.00;96726.00;;;;5097921;28;20433;-70
2023/03/19 00:50:37;;;;;;;10.57;7.20;;;1.40;99.90;1.70;96722.00;;;;5105856;28;20441;-70
2023/03/19 00:53:26;;;;;;;10.47;7.37;;;0.70;99.90;1.70;96707.00;;;;5109318;28;20428;-70
2023/03/19 00:56:17;;;;;;;12.40;8.10;;;0.50;99.90;2.00;96718.00;;;;5099020;28;21003;-70
2023/03/19 00:59:06;;;;;;;10.20;6.17;;;1.10;99.90;1.40;96724.00;;;;5106594;28;20427;-70
2023/03/19 01:01:54;;;;;;;6.80;4.80;;;0.60;99.90;0.80;96723.00;;;;5105386;28;20566;-70
2023/03/19 01:04:43;;;;;;;6.07;4.57;;;0.60;99.90;0.80;96721.00;;;;5109685;28;20409;-69
2023/03/19 01:07:33;;;;;;;8.00;6.60;;;0.60;99.90;0.90;96724.00;;;;5098732;28;20435;-67
2023/03/19 01:10:24;;;;;;;7.03;6.27;;;0.50;99.90;1.00;96724.00;;;;5090941;28;20446;-70
2023/03/19 01:13:13;;;;;;;9.07;7.20;;;0.30;99.90;1.40;96733.00;;;;5104646;28;20424;-70
2023/03/19 01:16:03;;;;;;;9.23;6.30;;;0.50;99.90;1.20;96719.00;;;;5105775;28;20507;-69
2023/03/19 01:18:52;;;;;;;8.30;6.70;;;0.60;99.90;1.70;96720.00;;;;5104548;28;20420;-71
2023/03/19 01:21:44;;;;;;;7.40;6.20;;;0.20;99.90;2.00;96715.00;;;;5105394;28;20457;-70
2023/03/19 01:24:34;;;;;;;10.43;6.33;;;0.40;99.90;1.90;96715.00;;;;5094936;28;20428;-70
2023/03/19 01:27:23;;;;;;;8.53;7.20;;;0.90;99.90;1.70;96704.00;;;;5096169;28;20786;-68
2023/03/19 01:30:13;;;;;;;8.80;7.43;;;0.50;99.90;1.60;96712.00;;;;5094209;28;20440;-70
2023/03/19 01:33:01;;;;;;;8.27;6.97;;;0.80;99.90;1.80;96717.00;;;;5104198;28;20421;-68
2023/03/19 01:35:50;;;;;;;6.97;6.27;;;-0.60;99.90;1.40;96715.00;;;;5097185;28;20414;-70
2023/03/19 01:38:39;;;;;;;11.70;7.00;;;0.90;99.90;1.50;96690.00;;;;5093166;28;20838;-71
2023/03/19 01:41:29;;;;;;;12.00;7.77;;;0.60;99.90;1.40;96701.00;;;;5106035;28;20433;-68
2023/03/19 01:44:29;;;;;;;10.97;7.13;;;0.80;99.90;1.80;96701.00;;;;5109770;28;20469;-68
2023/03/19 01:47:26;;;;;;;7.27;5.80;;;0.80;99.90;1.80;96710.00;;;;5104014;28;20466;-70
2023/03/19 01:50:26;;;;;;;12.63;7.40;;;1.00;99.90;1.90;96715.00;;;;5097090;28;20448;-68
2023/03/19 01:53:18;;;;;;;8.07;6.87;;;0.70;99.90;2.00;96716.00;;;;5100187;28;20800;-68
2023/03/19 01:56:12;;;;;;;14.83;8.17;;;0.80;99.90;2.20;96709.00;;;;5096171;28;20423;-69
2023/03/19 01:59:09;;;;;;;7.80;6.37;;;0.90;99.90;2.20;96710.00;;;;5092765;28;20424;-68
2023/03/19 02:02:03;;;;;;;9.00;6.50;;;1.50;99.90;1.90;96694.00;;;;5098231;28;20591;-69
2023/03/19 02:05:00;;;;;;;7.43;5.77;;;1.00;99.90;1.20;96709.00;;;;5104243;28;20814;-72
2023/03/19 02:07:50;;;;;;;8.40;7.33;;;0.80;99.90;1.30;96700.00;;;;5095969;28;20441;-71
2023/03/19 02:10:39;;;;;;;9.13;6.93;;;0.60;99.90;1.80;96700.00;;;;5094952;28;20437;-71
2023/03/19 02:13:28;;;;;;;;;;;0.60;99.90;1.70;96708.00;;;;5095982;28;20444;-72
2023/03/19 02:16:18;;;;;;;10.97;6.93;;;0.70;99.90;1.40;96709.00;;;;5097109;28;20343;-72
2023/03/19 02:19:13;;;;;;;9.87;7.57;;;0.90;99.90;1.30;96706.00;;;;5090823;28;20426;-72
2023/03/19 02:22:03;;;;;;;17.90;8.13;;;0.70;99.90;1.40;96717.00;;;;5107605;28;20575;-72
2023/03/19 02:24:57;;;;;;;12.17;8.73;;;0.60;99.90;1.80;96714.00;;;;5097460;28;20428;-72
2023/03/19 02:27:47;;;;;;;13.80;7.80;;;0.60;99.90;1.90;96705.00;;;;5108242;28;20494;-71
2023/03/19 02:30:36;;;;;;;13.67;7.87;;;0.60;99.90;1.90;96712.00;;;;5097570;28;20495;-71
2023/03/19 02:33:25;;;;;;;13.83;7.63;;;0.60;99.90;1.80;96713.00;;;;5092042;28;20855;-72
2023/03/19 02:36:17;;;;;;;11.80;6.90;;;0.90;99.90;1.50;96704.00;;;;5102863;28;20493;-70
2023/03/19 02:39:13;;;;;;;11.47;7.03;;;0.90;99.90;1.10;96710.00;;;;5093252;28;20418;-72
2023/03/19 02:42:03;;;;;;;13.30;8.43;;;0.50;99.90;1.10;96706.00;;;;5097662;28;20509;-71
2023/03/19 02:44:54;;;;;;;11.37;8.10;;;0.80;99.90;1.50;96701.00;;;;5095408;28;20418;-71
2023/03/19 02:47:42;;;;;;;9.93;6.83;;;0.40;99.90;1.80;96698.00;;;;5100748;28;20436;-72
2023/03/19 02:50:31;;;;;;;12.57;7.90;;;0.40;99.90;1.50;96703.00;;;;5091672;28;20951;-72
2023/03/19 02:53:20;;;;;;;9.67;6.17;;;0.40;99.90;1.20;96690.00;;;;5088771;28;20425;-71
2023/03/19 02:56:09;;;;;;;7.63;6.90;;;0.60;99.90;1.00;96699.00;;;;5097140;28;20490;-71
2023/03/19 02:58:58;;;;;;;10.40;6.90;;;0.50;99.90;0.70;96700.00;;;;5104312;28;20576;-72
2023/03/19 03:01:48;;;;;;;8.63;5.50;;;0.20;99.90;0.60;96707.00;;;;5111625;28;20489;-71
2023/03/19 03:04:37;;;;;;;16.10;7.17;;;0.20;99.90;1.20;96706.00;;;;5102562;28;20420;-71
2023/03/19 03:07:25;;;;;;;10.27;7.50;;;0.20;99.90;1.50;96708.00;;;;5106435;28;20426;-71
2023/03/19 03:10:14;;;;;;;11.93;8.20;;;0.40;99.90;1.60;96710.00;;;;5097766;28;20445;-71
2023/03/19 03:13:04;;;;;;;11.43;6.93;;;0.20;99.90;1.60;96702.00;;;;5097068;28;20881;-72
2023/03/19 03:15:53;;;;;;;12.47;6.27;;;0.50;99.90;1.60;96701.00;;;;5096710;28;20437;-71
2023/03/19 03:18:43;;;;;;;9.17;6.57;;;0.50;99.90;1.30;96705.00;;;;5098677;28;21142;-71
2023/03/19 03:21:32;;;;;;;11.03;7.63;;;0.40;99.90;1.40;96701.00;;;;5097226;28;20441;-72
2023/03/19 03:24:23;;;;;;;7.77;6.43;;;0.40;99.90;1.20;96701.00;;;;5092102;28;20457;-71
2023/03/19 03:27:12;;;;;;;9.17;6.47;;;0.40;99.90;0.80;96703.00;;;;5101650;28;20431;-71
2023/03/19 03:30:00;;;;;;;17.30;6.77;;;0.00;99.90;0.70;96700.00;;;;5099464;28;20443;-72
2023/03/19 03:32:49;;;;;;;8.20;7.13;;;0.30;99.90;0.70;96698.00;;;;5107211;28;20425;-71
2023/03/19 03:35:39;;;;;;;13.70;7.23;;;0.00;99.90;0.70;96695.00;;;;5097970;28;20422;-71
2023/03/19 03:38:28;;;;;;;7.70;6.17;;;0.10;99.90;1.10;96691.00;;;;5094822;28;20474;-69
2023/03/19 03:41:17;;;;;;;8.77;7.87;;;0.00;99.90;0.80;96694.00;;;;5098712;28;20460;-71
2023/03/19 03:44:06;;;;;;;9.10;7.37;;;0.00;99.90;1.10;96696.00;;;;5095445;28;20497;-72
2023/03/19 03:46:55;;;;;;;11.23;6.93;;;0.00;99.90;0.60;96698.00;;;;5093570;28;20410;-71
2023/03/19 03:49:44;;;;;;;7.80;5.90;;;0.10;99.90;0.40;96690.00;;;;5092174;28;20434;-70
2023/03/19 03:52:34;;;;;;;9.97;6.83;;;-0.10;99.90;1.00;96695.00;;;;5100329;28;20433;-71
2023/03/19 03:55:23;;;;;;;12.23;7.17;;;0.00;99.90;1.10;96699.00;;;;5091777;28;21018;-72
2023/03/19 03:58:12;;;;;;;10.90;7.47;;;-0.10;99.90;1.10;96700.00;;;;5103918;28;20429;-71
2023/03/19 04:01:01;;;;;;;10.70;7.00;;;-0.10;99.90;0.80;96695.00;;;;5098251;28;20440;-70
2023/03/19 04:03:50;;;;;;;10.13;6.77;;;-0.10;99.90;0.60;96688.00;;;;5107234;28;20970;-71
2023/03/19 04:06:38;;;;;;;10.03;7.90;;;0.10;99.90;0.70;96683.00;;;;5102823;28;20425;-70
2023/03/19 04:09:28;;;;;;;9.87;7.10;;;-0.20;99.90;0.50;96688.00;;;;5106121;28;20421;-70
2023/03/19 04:12:17;;;;;;;11.30;6.17;;;-0.10;99.90;0.70;96684.00;;;;5101074;28;21001;-70
2023/03/19 04:15:09;;;;;;;10.00;8.67;;;-0.20;99.90;0.30;96689.00;;;;5106744;28;20464;-70
2023/03/19 04:17:58;;;;;;;6.57;4.53;;;-0.30;99.90;-0.30;96678.00;;;;5107594;28;20424;-70
2023/03/19 04:20:47;;;;;;;6.43;4.00;;;-0.30;99.90;-0.50;96683.00;;;;5098322;28;20964;-71
2023/03/19 04:23:36;;;;;;;9.33;6.80;;;-0.40;99.90;-0.30;96678.00;;;;5099388;28;20462;-71
2023/03/19 04:26:26;;;;;;;9.73;6.60;;;-0.70;99.90;-0.10;96677.00;;;;5094532;28;20417;-72
2023/03/19 04:29:15;;;;;;;11.73;8.40;;;-0.90;99.90;0.10;96681.00;;;;5098296;28;20433;-70
2023/03/19 04:32:04;;;;;;;9.83;7.73;;;-0.80;99.90;0.50;96680.00;;;;5098995;28;21005;-69
2023/03/19 04:34:53;;;;;;;8.53;5.67;;;-0.60;99.90;0.50;96677.00;;;;5101892;28;20428;-71
2023/03/19 04:37:47;;;;;;;10.27;7.40;;;-0.40;99.90;0.40;96677.00;;;;5097238;28;20422;-70
2023/03/19 04:40:36;;;;;;;9.67;7.50;;;-0.40;99.90;0.80;96680.00;;;;5103804;28;20433;-71
2023/03/19 04:43:26;;;;;;;10.07;5.70;;;-0.20;99.90;0.10;96670.00;;;;5105833;28;20461;-71
2023/03/19 04:46:15;;;;;;;5.70;4.63;;;-0.30;99.90;-0.40;96664.00;;;;5105424;28;20462;-70
2023/03/19 04:49:04;;;;;;;14.73;8.23;;;-0.50;99.90;0.10;96659.00;;;;5096387;28;20449;-70
2023/03/19 04:51:53;;;;;;;9.83;7.37;;;-0.90;99.90;0.30;96671.00;;;;5093000;28;20502;-72
2023/03/19 04:54:41;;;;;;;15.00;7.73;;;-0.50;99.90;0.10;96653.00;;;;5103989;28;20425;-71
2023/03/19 04:57:31;;;;;;;9.73;7.93;;;;;0.20;96647.00;;;;5096747;28;20428;-71
2023/03/19 05:00:22;;;;;;;3.93;3.63;;;;;-0.10;96666.00;;;;5098262;28;20935;-70
2023/03/19 05:03:11;;;;;;;8.60;6.03;;;;;0.10;96664.00;;;;5093041;27;20516;-71
2023/03/19 05:06:00;;;;;;;10.43;7.73;;;;;0.60;96676.00;;;;5104442;28;20427;-70
2023/03/19 05:08:49;;;;;;;3.77;3.40;;;;;0.00;96683.00;;;;5096443;28;20425;-70
2023/03/19 05:11:38;;;;;;;11.37;7.27;;;;;0.00;96670.00;;;;5100813;28;21077;-71
2023/03/19 05:14:27;;;;;;;5.33;4.83;;;;;-0.10;96690.00;;;;5097797;28;20428;-70
2023/03/19 05:17:17;;;;;;;7.40;5.80;;;;;-0.10;96683.00;;;;5102364;28;20820;-71
2023/03/19 05:20:08;;;;;;;6.80;5.40;;;;;-0.30;96681.00;;;;5107034;28;20444;-71
2023/03/19 05:22:57;;;;;;;6.30;5.53;;;;;0.30;96665.00;;;;5091814;28;20452;-71
2023/03/19 05:25:46;;;;;;;10.03;8.00;;;;;0.60;96681.00;;;;5101717;28;20423;-71
2023/03/19 05:28:35;;;;;;;10.37;8.33;;;;;0.60;96672.00;;;;5104168;28;20433;-72
2023/03/19 05:31:24;;;;;;;4.60;2.70;;;;;0.40;96676.00;;;;5097598;28;20445;-71
2023/03/19 05:34:14;;;;;;;3.53;3.33;;;;;-0.10;96690.00;;;;5093258;28;20484;-70
2023/03/19 05:37:03;;;;;;;9.03;7.80;;;;;0.10;96676.00;;;;5091419;28;20426;-71
2023/03/19 05:39:52;;;;;;;9.43;7.50;;;;;0.90;96694.00;;;;5105092;28;20431;-71
2023/03/19 05:42:41;;;;;;;11.63;9.30;;;;;0.50;96689.00;;;;5095656;28;20424;-69
2023/03/19 05:45:30;;;;;;;10.83;5.70;;;;;0.20;96682.00;;;;5104616;28;20452;-70
2023/03/19 05:48:19;;;;;;;8.20;6.57;;;;;0.70;96688.00;;;;5093481;28;20432;-72
2023/03/19 05:51:10;;;;;;;17.30;8.17;;;;;1.20;96689.00;;;;5094935;28;20448;-70
2023/03/19 05:53:59;;;;;;;12.13;7.93;;;;;1.30;96694.00;;;;5108378;28;21726;-71
2023/03/19 05:56:48;;;;;;;8.17;6.17;;;;;1.30;96697.00;;;;5099303;28;20456;-72
2023/03/19 05:59:37;;;;;;;13.30;8.90;;;;;1.40;96701.00;;;;5106883;28;20433;-70
2023/03/19 06:02:26;;;;;;;17.70;9.13;;;;;1.40;96694.00;;;;5096597;28;20448;-71
2023/03/19 06:05:15;;;;;;;10.73;8.70;;;;;1.40;96700.00;;;;5096859;28;21014;-70
2023/03/19 06:08:06;;;;;;;9.57;8.17;;;;;1.40;96688.00;;;;5091798;28;20425;-70
2023/03/19 06:10:55;;;;;;;10.83;9.57;;;;;1.70;96696.00;;;;5103788;28;20453;-71
2023/03/19 06:13:45;;;;;;;7.13;6.43;;;;;1.30;96698.00;;;;5107934;28;20455;-72
2023/03/19 06:16:34;;;;;;;12.97;8.33;;;;;1.40;96694.00;;;;5108199;28;20803;-70
2023/03/19 06:19:23;;;;;;;9.73;7.07;;;;;1.80;96704.00;;;;5105093;28;20512;-71
2023/03/19 06:22:12;;;;;;;12.87;7.87;;;;;1.60;96709.00;;;;5106100;28;20477;-71
2023/03/19 06:25:02;;;;;;;15.23;8.50;;;;;1.10;96708.00;;;;5098969;28;20547;-70
2023/03/19 06:27:51;;;;;;;12.43;7.53;;;;;1.70;96704.00;;;;5101963;28;20516;-71
2023/03/19 06:30:40;;;;;;;25.77;10.90;;;;;1.90;96719.00;;;;5095144;28;20873;-72
2023/03/19 06:33:31;;;;;;;17.43;10.73;;;;;2.00;96716.00;;;;5097027;28;20433;-71
2023/03/19 06:36:20;;;;;;;10.30;8.87;;;;;2.30;96699.00;;;;5112794;28;20416;-72
2023/03/19 06:39:09;;;;;;;7.43;6.77;;;;;2.10;96701.00;;;;5107427;28;20502;-72
2023/03/19 06:41:59;;;;;;;15.37;9.27;;;;;2.30;96712.00;;;;5103287;28;20456;-71
2023/03/19 06:44:48;;;;;;;15.90;8.73;;;;;3.00;96716.00;;;;5106253;28;20452;-72
2023/03/19 06:47:42;;;;;;;10.77;8.53;;;;;3.30;96717.00;;;;5106964;28;20420;-71
2023/03/19 06:50:31;;;;;;;13.30;9.83;;;;;3.30;96723.00;;;;5102137;28;20862;-72
2023/03/19 06:53:20;;;;;;;13.33;9.17;;;;;3.20;96718.00;;;;5107547;28;20524;-73
2023/03/19 06:56:09;;;;;;;10.30;8.53;;;;;3.30;96720.00;;;;5102119;28;20425;-72
2023/03/19 06:58:59;;;;;;;16.03;8.80;;;;;3.70;96722.00;;;;5094382;28;20526;-72
2023/03/19 07:01:48;;;;;;;11.37;8.70;;;;;4.00;96721.00;;;;5102341;28;20480;-72
2023/03/19 07:04:37;;;;;;;14.83;10.37;;;;;4.20;96713.00;;;;5102364;28;21131;-71
2023/03/19 07:07:26;;;;;;;10.17;7.80;;;;;4.30;96709.00;;;;5106636;28;20471;-73
2023/03/19 07:10:17;;;;;;;14.00;9.80;;;;;4.60;96714.00;;;;5109726;28;20463;-72
2023/03/19 07:13:06;;;;;;;11.43;8.60;;;;;4.90;96723.00;;;;5104748;28;20445;-71
2023/03/19 07:15:57;;;;;;;12.53;8.53;;;;;4.80;96721.00;;;;5107835;28;20444;-73
2023/03/19 07:18:46;;;;;;;8.93;7.80;;;;;5.20;96722.00;;;;5106220;28;20486;-73
2023/03/19 07:21:35;;;;;;;12.53;9.13;;;;;5.40;96707.00;;;;5105195;28;20444;-73
2023/03/19 07:24:24;;;;;;;10.73;7.57;;;;;5.30;96713.00;;;;5102622;27;20559;-73
2023/03/19 07:27:13;;;;;;;12.17;8.60;;;;;5.40;96702.00;;;;5104734;28;20457;-72
2023/03/19 07:30:02;;;;;;;10.30;8.40;;;;;5.90;96711.00;;;;5100733;28;20512;-72
2023/03/19 07:32:53;;;;;;;10.40;8.13;;;;;6.20;96704.00;;;;5102438;27;20440;-70
2023/03/19 07:35:42;;;;;;;9.97;8.33;;;;;7.40;96716.00;;;;5099537;28;20405;-73
2023/03/19 07:38:31;;;;;;;11.23;8.40;;;;;7.80;96729.00;;;;5109300;28;20777;-71
2023/03/19 07:41:20;;;;;;;9.63;7.63;;;;;7.70;96725.00;;;;5108603;28;20774;-74
2023/03/19 07:44:09;;;;;;;14.87;7.80;;;;;8.10;96731.00;;;;5100362;28;20207;-73
2023/03/19 07:46:58;;;;;;;13.33;9.33;;;;;8.90;96721.00;;;;5108902;28;20248;-73
2023/03/19 07:49:48;;;;;;;8.00;6.77;;;;;9.00;96724.00;;;;5105490;28;20202;-73
2023/03/19 07:52:37;;;;;;;12.63;8.57;;;;;9.20;96723.00;;;;5103853;28;20228;-73
2023/03/19 07:55:26;;;;;;;10.57;7.40;;;;;8.90;96730.00;;;;5107691;28;20210;-72
2023/03/19 07:58:15;;;;;;;8.63;7.03;;;;;9.40;96743.00;;;;5106624;28;20209;-72
2023/03/19 08:01:05;;;;;;;10.33;8.03;;;;;9.80;96733.00;;;;5103618;28;20237;-71
2023/03/19 08:03:55;;;;;;;10.87;7.47;;;;;9.60;96729.00;;;;5107515;28;20217;-73
2023/03/19 08:06:45;;;;;;;10.70;7.87;;;;;9.70;96720.00;;;;5109249;28;20218;-72
2023/03/19 08:09:34;;;;;;;11.07;8.87;;;;;9.70;96724.00;;;;5109088;28;20689;-73
2023/03/19 08:12:23;;;;;;;12.37;7.87;;;;;9.90;96714.00;;;;5108125;28;20214;-73
2023/03/19 08:15:12;;;;;;;12.63;7.20;;;;;9.60;96705.00;;;;5106022;28;20870;-72
2023/03/19 08:18:03;;;;;;;11.20;7.77;;;;;10.50;96724.00;;;;5107259;28;20194;-72
2023/03/19 08:20:52;;;;;;;10.10;8.03;;;;;10.70;96722.00;;;;5102921;28;20222;-72
2023/03/19 08:23:43;;;;;;;10.77;7.67;;;;;10.30;96708.00;;;;5102391;27;20195;-72
2023/03/19 08:26:32;;;;;;;10.80;7.90;;;;;10.90;96705.00;;;;5099915;28;20287;-72
2023/03/19 08:29:21;;;;;;;9.47;7.13;;;;;11.20;96713.00;;;;5103038;28;20207;-73
2023/03/19 08:32:10;;;;;;;10.10;7.23;;;;;11.30;96699.00;;;;5096424;28;20194;-73
2023/03/19 08:35:00;;;;;;;10.03;6.57;;;;;11.80;96698.00;;;;5105969;28;20199;-72
2023/03/19 08:37:49;;;;;;;7.47;6.27;;;;;11.90;96707.00;;;;5106970;28;20210;-73
2023/03/19 08:40:39;;;;;;;9.23;6.47;;;;;12.40;96703.00;;;;5101810;28;20226;-71
2023/03/19 08:43:28;;;;;;;11.97;6.57;;;;;12.60;96704.00;;;;5104554;28;20326;-71
2023/03/19 08:46:18;;;;;;;8.57;6.00;;;;;12.90;96701.00;;;;5104746;28;20226;-73
2023/03/19 08:49:07;;;;;;;9.83;6.73;;;;;12.90;96721.00;;;;5104395;28;20198;-72
2023/03/19 08:51:56;;;;;;;8.60;6.27;;;;;12.10;96716.00;;;;5101734;28;20241;-72
2023/03/19 08:54:45;;;;;;;13.63;7.17;;;;;12.10;96723.00;;;;5106707;28;20244;-70
2023/03/19 08:57:35;;;;;;;7.37;6.00;;;;;12.50;96728.00;;;;5104693;28;20202;-70
2023/03/19 09:00:26;;;;;;;9.63;6.73;;;;;12.60;96717.00;;;;5105098;28;20226;-71
2023/03/19 09:03:17;;;;;;;10.73;6.70;;;;;13.00;96723.00;;;;5105899;28;20214;-72
2023/03/19 09:06:08;;;;;;;9.03;6.50;;;;;13.10;96736.00;;;;5102871;28;20218;-71
2023/03/19 09:08:57;;;;;;;17.20;6.67;;;;;14.00;96729.00;;;;5107093;28;20210;-71
2023/03/19 09:11:46;;;;;;;7.50;6.07;;;;;14.50;96732.00;;;;5100986;28;20277;-71
2023/03/19 09:14:36;;;;;;;6.10;5.40;;;;;14.20;96733.00;;;;5100717;28;20210;-70
2023/03/19 09:17:28;;;;;;;6.60;5.27;;;;;14.80;96736.00;;;;5099022;27;20218;-70
2023/03/19 09:20:18;;;;;;;7.83;6.13;;;;;15.40;96729.00;;;;5095538;28;20218;-70
2023/03/19 09:23:06;;;;;;;11.27;5.57;;;;;15.70;96716.00;;;;5093598;28;20682;-70
2023/03/19 09:25:55;;;;;;;11.33;6.53;;;;;15.30;96723.00;;;;5097028;27;20219;-70
2023/03/19 09:28:45;;;;;;;7.47;5.87;;;;;14.60;96721.00;;;;5104996;28;20206;-72
2023/03/19 09:31:35;;;;;;;7.53;6.00;;;;;15.70;96728.00;;;;5097961;28;20268;-71
2023/03/19 09:34:24;;;;;;;8.47;5.73;;;;;16.40;96729.00;;;;5096535;28;20210;-71
2023/03/19 09:37:13;;;;;;;9.73;8.73;;;14.00;88.60;16.60;96728.00;;;;5103201;28;20191;-71
2023/03/19 09:40:03;;;;;;;10.37;7.60;;;14.00;89.10;16.90;96721.00;;;;5097302;28;20218;-71
2023/03/19 09:43:03;;;;;;;11.17;6.40;;;14.20;88.30;17.20;96715.00;;;;5102980;28;20195;-71
2023/03/19 09:45:52;;;;;;;8.93;6.33;;;14.40;88.30;17.50;96719.00;;;;5105169;28;20278;-71
2023/03/19 09:48:49;;;;;;;10.73;7.53;;;14.60;86.80;17.50;96713.00;;;;5105618;28;20449;-71
2023/03/19 09:51:45;;;;;;;8.93;6.90;;;14.90;85.90;17.20;96715.00;;;;5100017;28;20250;-70
2023/03/19 09:54:41;;;;;;;5.90;4.83;;;15.10;82.90;17.20;96721.00;;;;5101574;28;20206;-71
2023/03/19 09:57:32;;;;;;;11.80;7.00;;;15.10;80.50;17.20;96721.00;;;;5104480;28;20213;-71
2023/03/19 10:00:24;;;;;;;9.00;6.30;;;15.10;79.20;16.70;96707.00;;;;5106418;28;20216;-71
2023/03/19 10:03:45;;;;;;;11.40;8.27;;;15.00;77.40;17.00;96691.00;;;;5100575;28;20203;-70
2023/03/19 10:06:39;;;;;;;11.03;6.73;;;14.90;77.00;17.10;96704.00;;;;5098998;28;20214;-70
2023/03/19 10:09:52;;;;;;;8.37;6.43;;;14.90;77.90;17.20;96704.00;;;;5100657;28;20221;-70
2023/03/19 10:12:53;;;;;;;9.80;6.30;;;14.90;77.40;16.80;96694.00;;;;5103266;28;20902;-71
2023/03/19 10:15:44;;;;;;;9.43;6.97;;;14.90;76.90;17.80;96684.00;;;;5103987;28;20233;-71
2023/03/19 10:18:38;;;;;;;11.03;7.60;;;15.00;77.50;17.10;96686.00;;;;5103297;28;20611;-71
2023/03/19 10:21:35;;;;;;;9.03;6.47;;;15.20;76.60;18.30;96683.00;;;;5095624;28;20226;-70
2023/03/19 10:24:30;;;;;;;11.57;7.00;;;15.40;75.50;18.50;96701.00;;;;5093495;28;20195;-71
2023/03/19 10:27:21;;;;;;;10.43;6.57;;;15.70;75.50;18.80;96684.00;;;;5101190;28;20283;-71
2023/03/19 10:30:16;;;;;;;11.93;8.07;;;15.90;75.40;18.90;96684.00;;;;5098226;28;20219;-71
2023/03/19 10:33:18;;;;;;;11.90;8.50;;;16.10;75.30;18.60;96682.00;;;;5099579;28;20229;-70
2023/03/19 10:36:11;;;;;;;10.30;7.80;;;16.20;74.20;17.40;96671.00;;;;5102678;28;20220;-72
2023/03/19 10:39:06;;;;;;;10.20;6.90;;;16.10;70.90;18.10;96670.00;;;;5099969;28;20191;-71
2023/03/19 10:42:06;;;;;;;13.13;8.63;;;16.00;71.30;18.40;96682.00;;;;5106092;28;20218;-72
2023/03/19 10:45:04;;;;;;;16.00;7.83;;;16.10;71.60;18.60;96682.00;;;;5107084;28;20324;-71
2023/03/19 10:47:54;;;;;;;10.60;7.43;;;16.10;72.20;18.90;96674.00;;;;5105484;28;20223;-71
2023/03/19 10:50:50;;;;;;;12.67;8.80;;;16.20;71.40;19.10;96679.00;;;;5103188;28;20233;-71
2023/03/19 10:53:40;;;;;;;12.80;7.20;;;16.30;71.40;18.50;96677.00;;;;5100973;28;20233;-72
2023/03/19 10:56:34;;;;;;;12.87;8.17;;;16.30;70.10;18.70;96681.00;;;;5106380;28;20214;-75
2023/03/19 10:59:26;;;;;;;10.43;7.63;;;16.30;70.20;18.80;96679.00;;;;5096919;28;20566;-75
2023/03/19 11:02:19;;;;;;;11.93;7.70;;;16.30;70.30;18.80;96682.00;;;;5099364;28;20203;-72
2023/03/19 11:05:24;;;;;;;12.90;8.07;;;16.40;70.10;18.80;96679.00;;;;5094929;28;20196;-75
2023/03/19 11:08:21;;;;;;;11.77;6.83;;;16.40;69.70;18.00;96669.00;;;;5108814;28;20221;-75
2023/03/19 11:11:35;;;;;;;11.33;7.63;;;16.30;67.70;18.90;96666.00;;;;5107191;28;20222;-74
2023/03/19 11:14:35;;;;;;;15.50;8.23;;;16.40;67.70;19.00;96657.00;;;;5105291;28;20685;-73
2023/03/19 11:17:28;;;;;;;12.03;7.93;;;16.40;67.80;18.30;96651.00;;;;5098071;28;20194;-72
2023/03/19 11:20:25;;;;;;;15.40;8.50;;;16.50;66.60;18.60;96663.00;;;;5106093;28;20225;-72
2023/03/19 11:23:17;;;;;;;11.27;7.73;;;16.50;67.90;18.00;96656.00;;;;5103672;28;20264;-73
2023/03/19 11:26:08;;;;;;;11.33;7.87;;;16.30;66.60;18.70;96659.00;;;;5104657;28;20195;-73
2023/03/19 11:29:04;;;;;;;13.20;7.83;;;16.30;67.50;18.90;96651.00;;;;5102116;28;20203;-72
2023/03/19 11:32:05;;;;;;;15.60;8.30;;;16.40;67.70;19.30;96655.00;;;;5109302;28;20218;-73
2023/03/19 11:35:15;;;;;;;14.77;7.97;;;16.60;68.50;19.40;96650.00;;;;5106288;28;20701;-72
2023/03/19 11:38:07;;;;;;;12.37;8.57;;;16.80;68.70;19.30;96665.00;;;;5104947;28;20844;-72
2023/03/19 11:41:05;;;;;;;14.37;9.80;;;16.90;69.00;19.30;96662.00;;;;5104572;28;20214;-72
2023/03/19 11:44:03;;;;;;;12.93;9.83;;;17.00;67.90;19.70;96659.00;;;;5100120;27;20676;-72
2023/03/19 11:47:00;;;;;;;14.30;10.43;;;17.10;68.10;19.80;96657.00;;;;5105925;28;20709;-71
2023/03/19 11:50:19;;;;;;;22.57;12.17;;;17.20;67.70;20.30;96644.00;;;;5102191;28;20229;-71
2023/03/19 11:53:21;;;;;;;13.33;9.80;;;17.40;67.40;21.10;96611.00;;;;5102122;28;20195;-70
2023/03/19 11:56:16;;;;;;;14.27;10.77;;;;;22.70;96611.00;;;;5099574;28;20206;-71
2023/03/19 11:59:25;;;;;;;16.70;10.43;;;;;22.80;96612.00;;;;5096699;28;20202;-71
2023/03/19 12:02:33;;;;;;;18.77;11.83;;;;;23.40;96608.00;;;;5104417;28;20206;-71
2023/03/19 12:05:27;;;;;;;14.90;10.43;;;;;24.10;96613.00;;;;5097701;28;20207;-72
2023/03/19 12:08:25;;;;;;;16.10;10.00;;;;;24.00;96598.00;;;;5100402;28;20227;-72
2023/03/19 12:11:19;;;;;;;16.43;10.83;;;;;24.70;96600.00;;;;5093500;28;20237;-72
2023/03/19 12:14:20;;;;;;;15.20;10.67;;;;;24.30;96593.00;;;;5105522;28;20292;-73
2023/03/19 12:17:21;;;;;;;13.43;11.17;;;;;24.50;96627.00;;;;5108710;28;20218;-73
2023/03/19 12:20:20;;;;;;;15.23;11.67;;;;;24.10;96609.00;;;;5100593;28;20232;-72
2023/03/19 12:23:18;;;;;;;16.07;12.13;;;;;25.00;96595.00;;;;5097789;28;20555;-73
2023/03/19 12:26:08;;;;;;;18.80;11.13;;;;;25.40;96585.00;;;;5093780;28;20202;-74
2023/03/19 12:29:02;;;;;;;13.13;9.83;;;;;25.60;96593.00;;;;5100197;28;20712;-73
2023/03/19 12:32:25;;;;;;;13.30;9.93;;;23.40;69.00;25.30;96599.00;;;;5101322;28;20243;-73
2023/03/19 12:35:17;;;;;;;12.87;9.97;;;22.40;62.90;25.20;96598.00;;;;5106574;28;20216;-73
2023/03/19 12:38:13;;;;;;;15.23;9.93;;;23.10;63.90;23.40;96605.00;;;;5101510;28;20603;-74
2023/03/19 12:41:09;;;;;;;11.60;8.27;;;22.80;63.00;24.10;96611.00;;;;5104856;28;20213;-76
2023/03/19 12:44:04;;;;;;;12.83;9.83;;;22.60;62.10;24.50;96598.00;;;;5105948;28;20207;-76
2023/03/19 12:46:58;;;;;;;13.03;8.50;;;22.40;63.00;23.70;96605.00;;;;5102472;28;20651;-74
2023/03/19 12:49:55;;;;;;;12.00;9.33;;;22.40;62.70;24.40;96635.00;;;;5101570;28;20204;-75
2023/03/19 12:52:48;;;;;;;11.30;8.80;;;22.40;62.80;24.00;96615.00;;;;5103519;28;20199;-74
2023/03/19 12:55:44;;;;;;;14.77;9.43;;;22.40;62.20;24.00;96616.00;;;;5099381;28;20203;-73
2023/03/19 12:58:46;;;;;;;13.27;10.10;;;22.10;62.50;23.70;96628.00;;;;5099431;28;20220;-74
2023/03/19 13:01:41;;;;;;;14.77;9.83;;;21.90;61.90;23.70;96630.00;;;;5100901;28;20629;-73
2023/03/19 13:04:35;;;;;;;14.10;9.60;;;21.70;61.80;24.20;96636.00;;;;5101012;28;20209;-73
2023/03/19 13:07:36;;;;;;;15.93;10.13;;;21.70;62.30;23.60;96636.00;;;;5099729;28;20716;-72
2023/03/19 13:10:25;;;;;;;12.93;9.23;;;21.50;61.70;23.90;96636.00;;;;5103570;28;20234;-73
2023/03/19 13:13:35;;;;;;;12.53;9.13;;;21.50;63.40;23.30;96639.00;;;;5100713;28;20344;-72
2023/03/19 13:16:34;;;;;;;13.43;9.97;;;21.40;62.20;23.20;96630.00;;;;5105914;28;20191;-73
2023/03/19 13:19:30;;;;;;;10.40;8.23;;;21.30;61.60;22.40;96639.00;;;;5101231;28;20269;-73
2023/03/19 13:22:23;;;;;;;14.07;8.90;;;21.00;63.10;22.20;96640.00;;;;5102546;28;20972;-73